sensor_id;sensor_type;location;lat;lon;timestamp;temperature;humidity
10344;DHT22;5217;43.960;10.954;2023-05-10T00:02:20;21.50;99.90
10344;DHT22;5217;43.960;10.954;2023-05-10T00:04:50;21.40;99.90
10344;DHT22;5217;43.960;10.954;2023-05-10T00:07:19;21.40;99.90
10344;DHT22;5217;43.960;10.954;2023-05-10T00:09:47;21.40;99.90
10344;DHT22;5217;43.960;10.954;2023-05-10T00:12:15;21.40;99.90
10344;DHT22;5217;43.960;10.954;2023-05-10T00:14:44;21.40;99.90
10344;DHT22;5217;43.960;10.954;2023-05-10T00:17:12;21.40;99.90
10344;DHT22;5217;43.960;10.954;2023-05-10T00:19:41;21.40;99.90
10344;DHT22;5217;43.960;10.954;2023-05-10T00:22:11;21.40;99.90
10344;DHT22;5217;43.960;10.954;2023-05-10T00:24:39;21.40;99.90
10344;DHT22;5217;43.960;10.954;2023-05-10T00:27:07;21.30;99.90
10344;DHT22;5217;43.960;10.954;2023-05-10T00:29:35;21.30;99.90
10344;DHT22;5217;43.960;10.954;2023-05-10T00:32:04;21.30;99.90
10344;DHT22;5217;43.960;10.954;2023-05-10T00:34:32;21.20;99.90
10344;DHT22;5217;43.960;10.954;2023-05-10T00:37:01;21.30;99.90
10344;DHT22;5217;43.960;10.954;2023-05-10T00:39:31;21.30;99.90
10344;DHT22;5217;43.960;10.954;2023-05-10T00:41:59;21.30;99.90
10344;DHT22;5217;43.960;10.954;2023-05-10T00:44:27;21.20;99.90
10344;DHT22;5217;43.960;10.954;2023-05-10T00:46:56;21.20;99.90
10344;DHT22;5217;43.960;10.954;2023-05-10T00:49:24;21.20;99.90
10344;DHT22;5217;43.960;10.954;2023-05-10T00:51:52;21.20;99.90
10344;DHT22;5217;43.960;10.954;2023-05-10T00:54:21;21.20;99.90
10344;DHT22;5217;43.960;10.954;2023-05-10T00:56:51;21.20;99.90
10344;DHT22;5217;43.960;10.954;2023-05-10T00:59:20;21.20;99.90
10344;DHT22;5217;43.960;10.954;2023-05-10T01:01:48;21.20;99.90
10344;DHT22;5217;43.960;10.954;2023-05-10T01:04:18;21.10;99.90
10344;DHT22;5217;43.960;10.954;2023-05-10T01:06:52;21.10;99.90
10344;DHT22;5217;43.960;10.954;2023-05-10T01:09:22;21.10;99.90
10344;DHT22;5217;43.960;10.954;2023-05-10T01:11:51;21.10;99.90
10344;DHT22;5217;43.960;10.954;2023-05-10T01:14:21;21.10;99.90
10344;DHT22;5217;43.960;10.954;2023-05-10T01:16:50;21.10;99.90
10344;DHT22;5217;43.960;10.954;2023-05-10T01:19:22;21.00;99.90
10344;DHT22;5217;43.960;10.954;2023-05-10T01:21:58;21.00;99.90
10344;DHT22;5217;43.960;10.954;2023-05-10T01:24:56;21.00;99.90
10344;DHT22;5217;43.960;10.954;2023-05-10T01:27:53;21.00;99.90
10344;DHT22;5217;43.960;10.954;2023-05-10T01:30:46;21.00;99.90
10344;DHT22;5217;43.960;10.954;2023-05-10T01:33:22;21.00;99.90
10344;DHT22;5217;43.960;10.954;2023-05-10T01:35:58;21.00;99.90
10344;DHT22;5217;43.960;10.954;2023-05-10T01:38:40;21.00;99.90
10344;DHT22;5217;43.960;10.954;2023-05-10T01:41:14;21.00;99.90
10344;DHT22;5217;43.960;10.954;2023-05-10T01:43:52;21.00;99.90
10344;DHT22;5217;43.960;10.954;2023-05-10T01:46:27;21.00;99.90
10344;DHT22;5217;43.960;10.954;2023-05-10T01:48:59;21.00;99.90
10344;DHT22;5217;43.960;10.954;2023-05-10T01:51:39;21.00;99.90
10344;DHT22;5217;43.960;10.954;2023-05-10T01:54:10;20.90;99.90
10344;DHT22;5217;43.960;10.954;2023-05-10T01:56:40;21.00;99.90
10344;DHT22;5217;43.960;10.954;2023-05-10T01:59:12;20.90;99.90
10344;DHT22;5217;43.960;10.954;2023-05-10T02:01:42;20.90;99.90
10344;DHT22;5217;43.960;10.954;2023-05-10T02:04:15;20.90;99.90
10344;DHT22;5217;43.960;10.954;2023-05-10T02:06:45;20.90;99.90
10344;DHT22;5217;43.960;10.954;2023-05-10T02:09:16;20.90;99.90
10344;DHT22;5217;43.960;10.954;2023-05-10T02:11:47;20.90;99.90
10344;DHT22;5217;43.960;10.954;2023-05-10T02:14:16;20.90;99.90
10344;DHT22;5217;43.960;10.954;2023-05-10T02:16:46;20.90;99.90
10344;DHT22;5217;43.960;10.954;2023-05-10T02:19:18;20.90;99.90
10344;DHT22;5217;43.960;10.954;2023-05-10T02:21:47;20.90;99.90
10344;DHT22;5217;43.960;10.954;2023-05-10T02:24:18;20.80;99.90
10344;DHT22;5217;43.960;10.954;2023-05-10T02:26:49;20.80;99.90
10344;DHT22;5217;43.960;10.954;2023-05-10T02:29:19;20.80;99.90
10344;DHT22;5217;43.960;10.954;2023-05-10T02:31:51;20.90;99.90
10344;DHT22;5217;43.960;10.954;2023-05-10T02:34:23;20.80;99.90
10344;DHT22;5217;43.960;10.954;2023-05-10T02:36:52;20.80;99.90
10344;DHT22;5217;43.960;10.954;2023-05-10T02:39:21;20.80;99.90
10344;DHT22;5217;43.960;10.954;2023-05-10T02:41:50;20.80;99.90
10344;DHT22;5217;43.960;10.954;2023-05-10T02:44:20;20.70;99.90
10344;DHT22;5217;43.960;10.954;2023-05-10T02:46:50;20.80;99.90
10344;DHT22;5217;43.960;10.954;2023-05-10T02:49:19;20.80;99.90
10344;DHT22;5217;43.960;10.954;2023-05-10T02:51:51;20.70;99.90
10344;DHT22;5217;43.960;10.954;2023-05-10T02:54:29;20.70;99.90
10344;DHT22;5217;43.960;10.954;2023-05-10T02:56:59;20.70;99.90
10344;DHT22;5217;43.960;10.954;2023-05-10T02:59:28;20.70;99.90
10344;DHT22;5217;43.960;10.954;2023-05-10T03:01:56;20.70;99.90
10344;DHT22;5217;43.960;10.954;2023-05-10T03:04:25;20.70;99.90
10344;DHT22;5217;43.960;10.954;2023-05-10T03:06:55;20.70;99.90
10344;DHT22;5217;43.960;10.954;2023-05-10T03:09:24;20.70;99.90
10344;DHT22;5217;43.960;10.954;2023-05-10T03:12:02;20.70;99.90
10344;DHT22;5217;43.960;10.954;2023-05-10T03:14:45;20.70;99.90
10344;DHT22;5217;43.960;10.954;2023-05-10T03:17:25;20.70;99.90
10344;DHT22;5217;43.960;10.954;2023-05-10T03:19:56;20.60;99.90
10344;DHT22;5217;43.960;10.954;2023-05-10T03:22:31;20.60;99.90
10344;DHT22;5217;43.960;10.954;2023-05-10T03:25:00;20.70;99.90
10344;DHT22;5217;43.960;10.954;2023-05-10T03:27:32;20.60;99.90
10344;DHT22;5217;43.960;10.954;2023-05-10T03:30:02;20.60;99.90
10344;DHT22;5217;43.960;10.954;2023-05-10T03:32:31;20.60;99.90
10344;DHT22;5217;43.960;10.954;2023-05-10T03:35:01;20.70;99.90
10344;DHT22;5217;43.960;10.954;2023-05-10T03:37:35;20.60;99.90
10344;DHT22;5217;43.960;10.954;2023-05-10T03:40:05;20.60;99.90
10344;DHT22;5217;43.960;10.954;2023-05-10T03:42:33;20.60;99.90
10344;DHT22;5217;43.960;10.954;2023-05-10T03:45:01;20.60;99.90
10344;DHT22;5217;43.960;10.954;2023-05-10T03:47:31;20.60;99.90
10344;DHT22;5217;43.960;10.954;2023-05-10T03:49:59;20.60;99.90
10344;DHT22;5217;43.960;10.954;2023-05-10T03:52:27;20.60;99.90
10344;DHT22;5217;43.960;10.954;2023-05-10T03:54:57;20.60;99.90
10344;DHT22;5217;43.960;10.954;2023-05-10T03:57:25;20.60;99.90
10344;DHT22;5217;43.960;10.954;2023-05-10T03:59:54;20.60;99.90
10344;DHT22;5217;43.960;10.954;2023-05-10T04:02:22;20.60;99.90
10344;DHT22;5217;43.960;10.954;2023-05-10T04:04:51;20.50;99.90
10344;DHT22;5217;43.960;10.954;2023-05-10T04:07:19;20.50;99.90
10344;DHT22;5217;43.960;10.954;2023-05-10T04:09:48;20.50;99.90
10344;DHT22;5217;43.960;10.954;2023-05-10T04:12:17;20.50;99.90
10344;DHT22;5217;43.960;10.954;2023-05-10T04:14:46;20.50;99.90
10344;DHT22;5217;43.960;10.954;2023-05-10T04:17:14;20.50;99.90
10344;DHT22;5217;43.960;10.954;2023-05-10T04:19:42;20.50;99.90
10344;DHT22;5217;43.960;10.954;2023-05-10T04:22:11;20.50;99.90
10344;DHT22;5217;43.960;10.954;2023-05-10T04:24:39;20.50;99.90
10344;DHT22;5217;43.960;10.954;2023-05-10T04:27:07;20.50;99.90
10344;DHT22;5217;43.960;10.954;2023-05-10T04:29:37;20.50;99.90
10344;DHT22;5217;43.960;10.954;2023-05-10T04:32:05;20.50;99.90
10344;DHT22;5217;43.960;10.954;2023-05-10T04:34:34;20.50;99.90
10344;DHT22;5217;43.960;10.954;2023-05-10T04:37:02;20.40;99.90
10344;DHT22;5217;43.960;10.954;2023-05-10T04:39:30;20.40;99.90
10344;DHT22;5217;43.960;10.954;2023-05-10T04:41:59;20.40;99.90
10344;DHT22;5217;43.960;10.954;2023-05-10T04:44:27;20.40;99.90
10344;DHT22;5217;43.960;10.954;2023-05-10T04:46:57;20.40;99.90
10344;DHT22;5217;43.960;10.954;2023-05-10T04:49:25;20.40;99.90
10344;DHT22;5217;43.960;10.954;2023-05-10T04:51:53;20.50;99.90
10344;DHT22;5217;43.960;10.954;2023-05-10T04:54:22;20.40;99.90
10344;DHT22;5217;43.960;10.954;2023-05-10T04:56:50;20.50;99.90
10344;DHT22;5217;43.960;10.954;2023-05-10T04:59:19;20.50;99.90
10344;DHT22;5217;43.960;10.954;2023-05-10T05:01:47;20.50;99.90
10344;DHT22;5217;43.960;10.954;2023-05-10T05:04:17;20.40;99.90
10344;DHT22;5217;43.960;10.954;2023-05-10T05:06:45;20.40;99.90
10344;DHT22;5217;43.960;10.954;2023-05-10T05:09:13;20.40;99.90
10344;DHT22;5217;43.960;10.954;2023-05-10T05:11:42;20.40;99.90
10344;DHT22;5217;43.960;10.954;2023-05-10T05:14:10;20.40;99.90
10344;DHT22;5217;43.960;10.954;2023-05-10T05:16:38;20.30;99.90
10344;DHT22;5217;43.960;10.954;2023-05-10T05:19:07;20.40;99.90
10344;DHT22;5217;43.960;10.954;2023-05-10T05:21:36;20.30;99.90
10344;DHT22;5217;43.960;10.954;2023-05-10T05:24:05;20.30;99.90
10344;DHT22;5217;43.960;10.954;2023-05-10T05:26:34;20.30;99.90
10344;DHT22;5217;43.960;10.954;2023-05-10T05:29:02;20.30;99.90
10344;DHT22;5217;43.960;10.954;2023-05-10T05:31:31;20.30;99.90
10344;DHT22;5217;43.960;10.954;2023-05-10T05:33:59;20.30;99.90
10344;DHT22;5217;43.960;10.954;2023-05-10T05:36:27;20.30;99.90
10344;DHT22;5217;43.960;10.954;2023-05-10T05:38:57;20.30;99.90
10344;DHT22;5217;43.960;10.954;2023-05-10T05:41:26;20.30;99.90
10344;DHT22;5217;43.960;10.954;2023-05-10T05:43:54;20.20;99.90
10344;DHT22;5217;43.960;10.954;2023-05-10T05:46:22;20.20;99.90
10344;DHT22;5217;43.960;10.954;2023-05-10T05:48:51;20.20;99.90
10344;DHT22;5217;43.960;10.954;2023-05-10T05:51:19;20.20;99.90
10344;DHT22;5217;43.960;10.954;2023-05-10T05:53:47;20.30;99.90
10344;DHT22;5217;43.960;10.954;2023-05-10T05:56:17;20.30;99.90
10344;DHT22;5217;43.960;10.954;2023-05-10T05:58:50;20.30;99.90
10344;DHT22;5217;43.960;10.954;2023-05-10T06:01:19;20.30;99.90
10344;DHT22;5217;43.960;10.954;2023-05-10T06:03:48;20.30;99.90
10344;DHT22;5217;43.960;10.954;2023-05-10T06:06:19;20.30;99.90
10344;DHT22;5217;43.960;10.954;2023-05-10T06:08:47;20.30;99.90
10344;DHT22;5217;43.960;10.954;2023-05-10T06:11:17;20.20;99.90
10344;DHT22;5217;43.960;10.954;2023-05-10T06:13:45;20.20;99.90
10344;DHT22;5217;43.960;10.954;2023-05-10T06:16:14;20.20;99.90
10344;DHT22;5217;43.960;10.954;2023-05-10T06:18:42;20.20;99.90
10344;DHT22;5217;43.960;10.954;2023-05-10T06:21:10;20.20;99.90
10344;DHT22;5217;43.960;10.954;2023-05-10T06:23:39;20.30;99.90
10344;DHT22;5217;43.960;10.954;2023-05-10T06:26:07;20.30;99.90
10344;DHT22;5217;43.960;10.954;2023-05-10T06:28:37;20.30;99.90
10344;DHT22;5217;43.960;10.954;2023-05-10T06:31:06;20.20;99.90
10344;DHT22;5217;43.960;10.954;2023-05-10T06:33:34;20.30;99.90
10344;DHT22;5217;43.960;10.954;2023-05-10T06:36:03;20.30;99.90
10344;DHT22;5217;43.960;10.954;2023-05-10T06:38:31;20.30;99.90
10344;DHT22;5217;43.960;10.954;2023-05-10T06:41:00;20.30;99.90
10344;DHT22;5217;43.960;10.954;2023-05-10T06:43:28;20.30;99.90
10344;DHT22;5217;43.960;10.954;2023-05-10T06:45:58;20.30;99.90
10344;DHT22;5217;43.960;10.954;2023-05-10T06:48:26;20.30;99.90
10344;DHT22;5217;43.960;10.954;2023-05-10T06:50:55;20.30;99.90
10344;DHT22;5217;43.960;10.954;2023-05-10T06:53:23;20.30;99.90
10344;DHT22;5217;43.960;10.954;2023-05-10T06:55:51;20.30;99.90
10344;DHT22;5217;43.960;10.954;2023-05-10T06:58:19;20.20;99.90
10344;DHT22;5217;43.960;10.954;2023-05-10T07:00:48;20.20;99.90
10344;DHT22;5217;43.960;10.954;2023-05-10T07:03:18;20.20;99.90
10344;DHT22;5217;43.960;10.954;2023-05-10T07:05:46;20.30;99.90
10344;DHT22;5217;43.960;10.954;2023-05-10T07:08:14;20.20;99.90
10344;DHT22;5217;43.960;10.954;2023-05-10T07:10:43;20.20;99.90
10344;DHT22;5217;43.960;10.954;2023-05-10T07:13:12;20.20;99.90
10344;DHT22;5217;43.960;10.954;2023-05-10T07:15:40;20.20;99.90
10344;DHT22;5217;43.960;10.954;2023-05-10T07:18:09;20.20;99.90
10344;DHT22;5217;43.960;10.954;2023-05-10T07:20:38;20.20;99.90
10344;DHT22;5217;43.960;10.954;2023-05-10T07:23:07;20.20;99.90
10344;DHT22;5217;43.960;10.954;2023-05-10T07:25:35;20.20;99.90
10344;DHT22;5217;43.960;10.954;2023-05-10T07:28:04;20.20;99.90
10344;DHT22;5217;43.960;10.954;2023-05-10T07:30:32;20.20;99.90
10344;DHT22;5217;43.960;10.954;2023-05-10T07:33:01;20.20;99.90
10344;DHT22;5217;43.960;10.954;2023-05-10T07:35:29;20.30;99.90
10344;DHT22;5217;43.960;10.954;2023-05-10T07:37:59;20.30;99.90
10344;DHT22;5217;43.960;10.954;2023-05-10T07:40:28;20.30;99.90
10344;DHT22;5217;43.960;10.954;2023-05-10T07:42:56;20.30;99.90
10344;DHT22;5217;43.960;10.954;2023-05-10T07:45:25;20.30;99.90
10344;DHT22;5217;43.960;10.954;2023-05-10T07:47:53;20.30;99.90
10344;DHT22;5217;43.960;10.954;2023-05-10T07:50:22;20.30;99.90
10344;DHT22;5217;43.960;10.954;2023-05-10T07:52:50;20.30;99.90
10344;DHT22;5217;43.960;10.954;2023-05-10T07:55:20;20.30;99.90
10344;DHT22;5217;43.960;10.954;2023-05-10T07:57:49;20.30;99.90
10344;DHT22;5217;43.960;10.954;2023-05-10T08:00:18;20.30;99.90
10344;DHT22;5217;43.960;10.954;2023-05-10T08:02:47;20.30;99.90
10344;DHT22;5217;43.960;10.954;2023-05-10T08:05:16;20.30;99.90
10344;DHT22;5217;43.960;10.954;2023-05-10T08:07:45;20.30;99.90
10344;DHT22;5217;43.960;10.954;2023-05-10T08:10:13;20.20;99.90
10344;DHT22;5217;43.960;10.954;2023-05-10T08:12:43;20.20;99.90
10344;DHT22;5217;43.960;10.954;2023-05-10T08:15:11;20.30;99.90
10344;DHT22;5217;43.960;10.954;2023-05-10T08:17:40;20.20;99.90
10344;DHT22;5217;43.960;10.954;2023-05-10T08:20:10;20.20;99.90
10344;DHT22;5217;43.960;10.954;2023-05-10T08:22:39;20.20;99.90
10344;DHT22;5217;43.960;10.954;2023-05-10T08:25:08;20.20;99.90
10344;DHT22;5217;43.960;10.954;2023-05-10T08:27:36;20.30;99.90
10344;DHT22;5217;43.960;10.954;2023-05-10T08:30:08;20.30;99.90
10344;DHT22;5217;43.960;10.954;2023-05-10T08:32:36;20.30;99.90
10344;DHT22;5217;43.960;10.954;2023-05-10T08:35:06;20.30;99.90
10344;DHT22;5217;43.960;10.954;2023-05-10T08:37:34;20.40;99.90
10344;DHT22;5217;43.960;10.954;2023-05-10T08:40:03;20.40;99.90
10344;DHT22;5217;43.960;10.954;2023-05-10T08:42:34;20.40;99.90
10344;DHT22;5217;43.960;10.954;2023-05-10T08:45:07;20.40;99.90
10344;DHT22;5217;43.960;10.954;2023-05-10T08:47:36;20.40;99.90
10344;DHT22;5217;43.960;10.954;2023-05-10T08:50:07;20.40;99.90
10344;DHT22;5217;43.960;10.954;2023-05-10T08:52:38;20.40;99.90
10344;DHT22;5217;43.960;10.954;2023-05-10T08:55:08;20.40;99.90
10344;DHT22;5217;43.960;10.954;2023-05-10T08:57:37;20.40;99.90
10344;DHT22;5217;43.960;10.954;2023-05-10T09:00:08;20.40;99.90
10344;DHT22;5217;43.960;10.954;2023-05-10T09:02:37;20.40;99.90
10344;DHT22;5217;43.960;10.954;2023-05-10T09:05:06;20.40;99.90
10344;DHT22;5217;43.960;10.954;2023-05-10T09:07:37;20.40;99.90
10344;DHT22;5217;43.960;10.954;2023-05-10T09:10:07;20.40;99.90
10344;DHT22;5217;43.960;10.954;2023-05-10T09:12:36;20.40;99.90
10344;DHT22;5217;43.960;10.954;2023-05-10T09:15:07;20.40;99.90
10344;DHT22;5217;43.960;10.954;2023-05-10T09:17:37;20.40;99.90
10344;DHT22;5217;43.960;10.954;2023-05-10T09:20:07;20.40;99.90
10344;DHT22;5217;43.960;10.954;2023-05-10T09:22:35;20.40;99.90
10344;DHT22;5217;43.960;10.954;2023-05-10T09:25:06;20.40;99.90
10344;DHT22;5217;43.960;10.954;2023-05-10T09:27:35;20.40;99.90
10344;DHT22;5217;43.960;10.954;2023-05-10T09:30:05;20.50;99.90
10344;DHT22;5217;43.960;10.954;2023-05-10T09:32:39;20.40;99.90
10344;DHT22;5217;43.960;10.954;2023-05-10T09:35:08;20.40;99.90
10344;DHT22;5217;43.960;10.954;2023-05-10T09:37:38;20.50;99.90
10344;DHT22;5217;43.960;10.954;2023-05-10T09:40:12;20.50;99.90
10344;DHT22;5217;43.960;10.954;2023-05-10T09:42:41;20.50;99.90
10344;DHT22;5217;43.960;10.954;2023-05-10T09:45:10;20.50;99.90
10344;DHT22;5217;43.960;10.954;2023-05-10T09:47:39;20.50;99.90
10344;DHT22;5217;43.960;10.954;2023-05-10T09:50:09;20.50;99.90
10344;DHT22;5217;43.960;10.954;2023-05-10T09:52:47;20.50;99.90
10344;DHT22;5217;43.960;10.954;2023-05-10T09:55:17;20.50;99.90
10344;DHT22;5217;43.960;10.954;2023-05-10T09:57:46;20.50;99.90
10344;DHT22;5217;43.960;10.954;2023-05-10T10:00:19;20.50;99.90
10344;DHT22;5217;43.960;10.954;2023-05-10T10:02:55;20.40;99.90
10344;DHT22;5217;43.960;10.954;2023-05-10T10:05:28;20.50;99.90
10344;DHT22;5217;43.960;10.954;2023-05-10T10:07:57;20.50;99.90
10344;DHT22;5217;43.960;10.954;2023-05-10T10:10:26;20.50;99.90
10344;DHT22;5217;43.960;10.954;2023-05-10T10:12:55;20.50;99.90
10344;DHT22;5217;43.960;10.954;2023-05-10T10:15:24;20.50;99.90
10344;DHT22;5217;43.960;10.954;2023-05-10T10:17:54;20.50;99.90
10344;DHT22;5217;43.960;10.954;2023-05-10T10:20:22;20.50;99.90
10344;DHT22;5217;43.960;10.954;2023-05-10T10:22:52;20.50;99.90
10344;DHT22;5217;43.960;10.954;2023-05-10T10:25:21;20.40;99.90
10344;DHT22;5217;43.960;10.954;2023-05-10T10:28:00;20.40;99.90
10344;DHT22;5217;43.960;10.954;2023-05-10T10:30:35;20.40;99.90
10344;DHT22;5217;43.960;10.954;2023-05-10T10:33:25;20.40;99.90
10344;DHT22;5217;43.960;10.954;2023-05-10T10:35:59;20.40;99.90
10344;DHT22;5217;43.960;10.954;2023-05-10T10:38:36;20.40;99.90
10344;DHT22;5217;43.960;10.954;2023-05-10T10:41:10;20.40;99.90
10344;DHT22;5217;43.960;10.954;2023-05-10T10:43:38;20.40;99.90
10344;DHT22;5217;43.960;10.954;2023-05-10T10:46:12;20.40;99.90
10344;DHT22;5217;43.960;10.954;2023-05-10T10:48:47;20.40;99.90
10344;DHT22;5217;43.960;10.954;2023-05-10T10:51:16;20.30;99.90
10344;DHT22;5217;43.960;10.954;2023-05-10T10:53:47;20.30;99.90
10344;DHT22;5217;43.960;10.954;2023-05-10T10:56:22;20.30;99.90
10344;DHT22;5217;43.960;10.954;2023-05-10T10:58:51;20.30;99.90
10344;DHT22;5217;43.960;10.954;2023-05-10T11:01:21;20.30;99.90
10344;DHT22;5217;43.960;10.954;2023-05-10T11:04:19;20.20;99.90
10344;DHT22;5217;43.960;10.954;2023-05-10T11:06:48;20.20;99.90
10344;DHT22;5217;43.960;10.954;2023-05-10T11:09:17;20.20;99.90
10344;DHT22;5217;43.960;10.954;2023-05-10T11:11:52;20.10;99.90
10344;DHT22;5217;43.960;10.954;2023-05-10T11:14:22;20.10;99.90
10344;DHT22;5217;43.960;10.954;2023-05-10T11:16:51;20.20;99.90
10344;DHT22;5217;43.960;10.954;2023-05-10T11:19:22;20.10;99.90
10344;DHT22;5217;43.960;10.954;2023-05-10T11:22:13;20.20;99.90
10344;DHT22;5217;43.960;10.954;2023-05-10T11:24:56;20.20;99.90
10344;DHT22;5217;43.960;10.954;2023-05-10T11:27:25;20.10;99.90
10344;DHT22;5217;43.960;10.954;2023-05-10T11:29:53;20.20;99.90
10344;DHT22;5217;43.960;10.954;2023-05-10T11:32:22;20.10;99.90
10344;DHT22;5217;43.960;10.954;2023-05-10T11:34:53;20.10;99.90
10344;DHT22;5217;43.960;10.954;2023-05-10T11:37:22;20.10;99.90
10344;DHT22;5217;43.960;10.954;2023-05-10T11:39:50;20.20;99.90
10344;DHT22;5217;43.960;10.954;2023-05-10T11:42:19;20.20;99.90
10344;DHT22;5217;43.960;10.954;2023-05-10T11:44:48;20.20;99.90
10344;DHT22;5217;43.960;10.954;2023-05-10T11:47:16;20.20;99.90
10344;DHT22;5217;43.960;10.954;2023-05-10T11:49:45;20.20;99.90
10344;DHT22;5217;43.960;10.954;2023-05-10T11:52:15;20.20;99.90
10344;DHT22;5217;43.960;10.954;2023-05-10T11:54:51;20.30;99.90
10344;DHT22;5217;43.960;10.954;2023-05-10T11:57:20;20.30;99.90
10344;DHT22;5217;43.960;10.954;2023-05-10T11:59:53;20.30;99.90
10344;DHT22;5217;43.960;10.954;2023-05-10T12:02:21;20.30;99.90
10344;DHT22;5217;43.960;10.954;2023-05-10T12:04:50;20.30;99.90
10344;DHT22;5217;43.960;10.954;2023-05-10T12:07:20;20.30;99.90
10344;DHT22;5217;43.960;10.954;2023-05-10T12:10:03;20.30;99.90
10344;DHT22;5217;43.960;10.954;2023-05-10T12:12:37;20.30;99.90
10344;DHT22;5217;43.960;10.954;2023-05-10T12:15:11;20.20;99.90
10344;DHT22;5217;43.960;10.954;2023-05-10T12:17:39;20.30;99.90
10344;DHT22;5217;43.960;10.954;2023-05-10T12:20:16;20.30;99.90
10344;DHT22;5217;43.960;10.954;2023-05-10T12:22:50;20.30;99.90
10344;DHT22;5217;43.960;10.954;2023-05-10T12:25:21;20.40;99.90
10344;DHT22;5217;43.960;10.954;2023-05-10T12:27:51;20.30;99.90
10344;DHT22;5217;43.960;10.954;2023-05-10T12:30:21;20.30;99.90
10344;DHT22;5217;43.960;10.954;2023-05-10T12:32:50;20.30;99.90
10344;DHT22;5217;43.960;10.954;2023-05-10T12:35:19;20.30;99.90
10344;DHT22;5217;43.960;10.954;2023-05-10T12:37:52;20.30;99.90
10344;DHT22;5217;43.960;10.954;2023-05-10T12:40:20;20.30;99.90
10344;DHT22;5217;43.960;10.954;2023-05-10T12:42:48;20.30;99.90
10344;DHT22;5217;43.960;10.954;2023-05-10T12:45:18;20.30;99.90
10344;DHT22;5217;43.960;10.954;2023-05-10T12:47:46;20.20;99.90
10344;DHT22;5217;43.960;10.954;2023-05-10T12:50:15;20.20;99.90
10344;DHT22;5217;43.960;10.954;2023-05-10T12:52:43;20.30;99.90
10344;DHT22;5217;43.960;10.954;2023-05-10T12:55:13;20.20;99.90
10344;DHT22;5217;43.960;10.954;2023-05-10T12:57:42;20.20;99.90
10344;DHT22;5217;43.960;10.954;2023-05-10T13:00:11;20.20;99.90
10344;DHT22;5217;43.960;10.954;2023-05-10T13:02:39;20.20;99.90
10344;DHT22;5217;43.960;10.954;2023-05-10T13:05:08;20.20;99.90
10344;DHT22;5217;43.960;10.954;2023-05-10T13:07:36;20.20;99.90
10344;DHT22;5217;43.960;10.954;2023-05-10T13:10:06;20.20;99.90
10344;DHT22;5217;43.960;10.954;2023-05-10T13:12:36;20.20;99.90
10344;DHT22;5217;43.960;10.954;2023-05-10T13:15:06;20.20;99.90
10344;DHT22;5217;43.960;10.954;2023-05-10T13:17:36;20.20;99.90
10344;DHT22;5217;43.960;10.954;2023-05-10T13:20:07;20.20;99.90
10344;DHT22;5217;43.960;10.954;2023-05-10T13:22:36;20.20;99.90
10344;DHT22;5217;43.960;10.954;2023-05-10T13:25:07;20.20;99.90
10344;DHT22;5217;43.960;10.954;2023-05-10T13:27:37;20.20;99.90
10344;DHT22;5217;43.960;10.954;2023-05-10T13:30:07;20.20;99.90
10344;DHT22;5217;43.960;10.954;2023-05-10T13:32:36;20.20;99.90
10344;DHT22;5217;43.960;10.954;2023-05-10T13:35:05;20.20;99.90
10344;DHT22;5217;43.960;10.954;2023-05-10T13:37:34;20.20;99.90
10344;DHT22;5217;43.960;10.954;2023-05-10T13:40:05;20.20;99.90
10344;DHT22;5217;43.960;10.954;2023-05-10T13:42:34;20.20;99.90
10344;DHT22;5217;43.960;10.954;2023-05-10T13:45:05;20.20;99.90
10344;DHT22;5217;43.960;10.954;2023-05-10T13:47:34;20.30;99.90
10344;DHT22;5217;43.960;10.954;2023-05-10T13:50:03;20.30;99.90
10344;DHT22;5217;43.960;10.954;2023-05-10T13:52:32;20.30;99.90
10344;DHT22;5217;43.960;10.954;2023-05-10T13:55:01;20.30;99.90
10344;DHT22;5217;43.960;10.954;2023-05-10T13:57:30;20.20;99.90
10344;DHT22;5217;43.960;10.954;2023-05-10T13:59:58;20.20;99.90
10344;DHT22;5217;43.960;10.954;2023-05-10T14:02:28;20.20;99.90
10344;DHT22;5217;43.960;10.954;2023-05-10T14:04:58;20.30;99.90
10344;DHT22;5217;43.960;10.954;2023-05-10T14:07:27;20.20;99.90
10344;DHT22;5217;43.960;10.954;2023-05-10T14:09:56;20.20;99.90
10344;DHT22;5217;43.960;10.954;2023-05-10T14:12:25;20.20;99.90
10344;DHT22;5217;43.960;10.954;2023-05-10T14:14:53;20.20;99.90
10344;DHT22;5217;43.960;10.954;2023-05-10T14:17:22;20.20;99.90
10344;DHT22;5217;43.960;10.954;2023-05-10T14:19:52;20.20;99.90
10344;DHT22;5217;43.960;10.954;2023-05-10T14:22:21;20.10;99.90
10344;DHT22;5217;43.960;10.954;2023-05-10T14:24:49;20.10;99.90
10344;DHT22;5217;43.960;10.954;2023-05-10T14:27:18;20.10;99.90
10344;DHT22;5217;43.960;10.954;2023-05-10T14:29:47;20.10;99.90
10344;DHT22;5217;43.960;10.954;2023-05-10T14:32:15;20.10;99.90
10344;DHT22;5217;43.960;10.954;2023-05-10T14:34:44;20.10;99.90
10344;DHT22;5217;43.960;10.954;2023-05-10T14:37:14;20.10;99.90
10344;DHT22;5217;43.960;10.954;2023-05-10T14:39:42;20.00;99.90
10344;DHT22;5217;43.960;10.954;2023-05-10T14:42:11;20.00;99.90
10344;DHT22;5217;43.960;10.954;2023-05-10T14:44:40;20.00;99.90
10344;DHT22;5217;43.960;10.954;2023-05-10T14:47:08;20.00;99.90
10344;DHT22;5217;43.960;10.954;2023-05-10T14:49:38;20.10;99.90
10344;DHT22;5217;43.960;10.954;2023-05-10T14:52:07;20.10;99.90
10344;DHT22;5217;43.960;10.954;2023-05-10T14:54:37;20.00;99.90
10344;DHT22;5217;43.960;10.954;2023-05-10T14:57:06;20.00;99.90
10344;DHT22;5217;43.960;10.954;2023-05-10T14:59:35;20.00;99.90
10344;DHT22;5217;43.960;10.954;2023-05-10T15:02:03;20.00;99.90
10344;DHT22;5217;43.960;10.954;2023-05-10T15:04:32;20.00;99.90
10344;DHT22;5217;43.960;10.954;2023-05-10T15:07:02;20.00;99.90
10344;DHT22;5217;43.960;10.954;2023-05-10T15:09:31;19.90;99.90
10344;DHT22;5217;43.960;10.954;2023-05-10T15:12:00;19.90;99.90
10344;DHT22;5217;43.960;10.954;2023-05-10T15:14:29;19.90;99.90
10344;DHT22;5217;43.960;10.954;2023-05-10T15:16:58;19.90;99.90
10344;DHT22;5217;43.960;10.954;2023-05-10T15:19:27;19.90;99.90
10344;DHT22;5217;43.960;10.954;2023-05-10T15:21:56;19.90;99.90
10344;DHT22;5217;43.960;10.954;2023-05-10T15:24:24;19.90;99.90
10344;DHT22;5217;43.960;10.954;2023-05-10T15:26:53;19.90;99.90
10344;DHT22;5217;43.960;10.954;2023-05-10T15:29:23;19.90;99.90
10344;DHT22;5217;43.960;10.954;2023-05-10T15:31:51;20.00;99.90
10344;DHT22;5217;43.960;10.954;2023-05-10T15:34:20;20.00;99.90
10344;DHT22;5217;43.960;10.954;2023-05-10T15:36:48;20.00;99.90
10344;DHT22;5217;43.960;10.954;2023-05-10T15:39:17;20.10;99.90
10344;DHT22;5217;43.960;10.954;2023-05-10T15:41:46;20.10;99.90
10344;DHT22;5217;43.960;10.954;2023-05-10T15:44:16;20.10;99.90
10344;DHT22;5217;43.960;10.954;2023-05-10T15:46:46;20.10;99.90
10344;DHT22;5217;43.960;10.954;2023-05-10T15:49:15;20.10;99.90